createdAt,value
2018-02-19T00:01:24.745Z,60.70
2018-02-19T00:03:52.385Z,60.70
2018-02-19T00:06:20.781Z,60.80
2018-02-19T00:08:48.421Z,60.80
2018-02-19T00:11:16.862Z,60.70
2018-02-19T00:13:44.466Z,60.60
2018-02-19T00:16:12.849Z,60.70
2018-02-19T00:18:41.211Z,60.70
2018-02-19T00:21:08.831Z,60.50
2018-02-19T00:23:37.000Z,60.70
2018-02-19T00:26:04.635Z,60.60
2018-02-19T00:28:32.235Z,60.60
2018-02-19T00:30:59.833Z,60.80
2018-02-19T00:33:28.266Z,61.50
2018-02-19T00:35:55.874Z,60.50
2018-02-19T00:38:24.272Z,60.80
2018-02-19T00:40:52.637Z,60.80
2018-02-19T00:43:21.001Z,60.60
2018-02-19T00:45:48.641Z,60.50
2018-02-19T00:48:16.247Z,60.70
2018-02-19T00:50:44.636Z,60.70
2018-02-19T00:53:12.239Z,60.40
2018-02-19T00:55:40.520Z,60.80
2018-02-19T00:58:08.141Z,60.70
2018-02-19T01:00:35.747Z,60.90
2018-02-19T01:03:03.376Z,60.70
2018-02-19T01:05:30.986Z,60.80
2018-02-19T01:07:58.626Z,60.90
2018-02-19T01:10:26.279Z,61.00
2018-02-19T01:12:53.917Z,60.80
2018-02-19T01:15:21.512Z,60.80
2018-02-19T01:17:49.112Z,60.90
2018-02-19T01:20:17.502Z,61.00
2018-02-19T01:22:45.102Z,60.80
2018-02-19T01:25:12.723Z,60.80
2018-02-19T01:27:40.331Z,60.90
2018-02-19T01:30:07.952Z,60.90
2018-02-19T01:32:35.565Z,61.00
2018-02-19T01:35:03.164Z,60.90
2018-02-19T01:37:30.787Z,61.10
2018-02-19T01:39:58.386Z,61.10
2018-02-19T01:42:26.050Z,61.10
2018-02-19T01:44:53.648Z,61.10
2018-02-19T01:47:21.246Z,61.10
2018-02-19T01:50:01.686Z,61.20
2018-02-19T01:52:29.272Z,61.00
2018-02-19T01:54:57.677Z,61.10
2018-02-19T01:57:25.302Z,60.90
2018-02-19T01:59:52.903Z,61.30
2018-02-19T02:02:20.537Z,61.50
2018-02-19T02:04:48.917Z,61.00
2018-02-19T02:07:19.112Z,61.10
2018-02-19T02:09:48.241Z,61.30
2018-02-19T02:12:16.614Z,61.30
2018-02-19T02:14:45.003Z,61.30
2018-02-19T02:17:12.605Z,61.10
2018-02-19T02:19:40.236Z,61.30
2018-02-19T02:22:07.888Z,61.40
2018-02-19T02:24:35.491Z,61.50
2018-02-19T02:27:03.101Z,61.50
2018-02-19T02:29:31.459Z,61.50
2018-02-19T02:31:59.084Z,61.50
2018-02-19T02:34:26.689Z,61.20
2018-02-19T02:36:55.069Z,61.20
2018-02-19T02:39:23.460Z,61.10
2018-02-19T02:41:51.821Z,61.00
2018-02-19T02:44:20.253Z,61.40
2018-02-19T02:46:47.855Z,61.30
2018-02-19T02:49:15.454Z,61.60
2018-02-19T02:51:43.097Z,61.60
2018-02-19T02:54:11.465Z,61.50
2018-02-19T02:56:39.893Z,61.40
2018-02-19T02:59:07.508Z,61.40
2018-02-19T03:01:35.878Z,61.50
2018-02-19T03:04:04.268Z,61.70
2018-02-19T03:06:32.625Z,61.80
2018-02-19T03:09:01.083Z,61.70
2018-02-19T03:11:28.677Z,61.60
2018-02-19T03:13:57.040Z,61.70
2018-02-19T03:16:25.432Z,61.60
2018-02-19T03:18:53.033Z,61.50
2018-02-19T03:21:20.665Z,61.90
2018-02-19T03:23:49.038Z,61.50
2018-02-19T03:26:17.400Z,61.20
2018-02-19T03:28:45.055Z,61.20
2018-02-19T03:31:13.093Z,61.40
2018-02-19T03:33:40.739Z,61.30
2018-02-19T03:36:08.349Z,61.30
2018-02-19T03:38:35.949Z,61.30
2018-02-19T03:41:03.576Z,61.30
2018-02-19T03:43:31.176Z,61.30
2018-02-19T03:45:58.804Z,61.30
2018-02-19T03:48:26.412Z,61.40
2018-02-19T03:50:54.039Z,61.30
2018-02-19T03:53:22.425Z,61.30
2018-02-19T03:55:50.789Z,61.30
2018-02-19T03:58:18.414Z,61.10
2018-02-19T04:00:46.017Z,61.30
2018-02-19T04:03:14.413Z,61.40
2018-02-19T04:05:42.014Z,61.10
2018-02-19T04:08:09.610Z,61.30
2018-02-19T04:10:38.002Z,61.40
2018-02-19T04:13:05.596Z,61.20
2018-02-19T04:15:33.222Z,61.30
2018-02-19T04:18:01.601Z,61.40
2018-02-19T04:20:29.315Z,61.30
2018-02-19T04:22:56.920Z,61.40
2018-02-19T04:25:25.287Z,61.40
2018-02-19T04:27:52.908Z,61.40
2018-02-19T04:30:20.519Z,61.40
2018-02-19T04:32:48.917Z,61.30
2018-02-19T04:35:17.337Z,61.30
2018-02-19T04:37:44.941Z,61.30
2018-02-19T04:40:13.337Z,61.50
2018-02-19T04:42:40.934Z,62.20
2018-02-19T04:45:14.371Z,61.30
2018-02-19T04:47:42.752Z,61.40
2018-02-19T04:50:11.132Z,61.50
2018-02-19T04:52:39.503Z,61.50
2018-02-19T04:55:07.920Z,62.10
2018-02-19T04:57:35.546Z,61.30
2018-02-19T05:00:03.140Z,61.40
2018-02-19T05:02:30.769Z,61.40
2018-02-19T05:04:59.148Z,61.90
2018-02-19T05:07:26.812Z,61.40
2018-02-19T05:09:55.225Z,61.60
2018-02-19T05:12:22.843Z,61.40
2018-02-19T05:14:50.468Z,61.50
2018-02-19T05:17:18.081Z,61.60
2018-02-19T05:19:46.528Z,61.50
2018-02-19T05:22:14.150Z,61.50
2018-02-19T05:24:41.756Z,61.60
2018-02-19T05:27:10.157Z,61.50
2018-02-19T05:29:38.524Z,61.60
2018-02-19T05:32:06.262Z,61.40
2018-02-19T05:34:33.864Z,61.50
2018-02-19T05:37:02.236Z,61.70
2018-02-19T05:39:30.633Z,61.60
2018-02-19T05:41:58.241Z,61.40
2018-02-19T05:44:25.881Z,61.70
2018-02-19T05:46:53.485Z,61.70
2018-02-19T05:49:21.857Z,61.70
2018-02-19T05:51:49.480Z,61.60
2018-02-19T05:54:17.086Z,61.70
2018-02-19T05:56:44.727Z,61.60
2018-02-19T05:59:12.327Z,61.60
2018-02-19T06:01:40.717Z,61.60
2018-02-19T06:04:08.430Z,61.50
2018-02-19T06:06:36.065Z,61.80
2018-02-19T06:09:03.656Z,61.70
2018-02-19T06:11:31.360Z,61.70
2018-02-19T06:13:59.780Z,61.60
2018-02-19T06:16:27.389Z,61.50
2018-02-19T06:18:55.778Z,61.80
2018-02-19T06:21:23.394Z,61.70
2018-02-19T06:23:51.080Z,61.80
2018-02-19T06:26:18.665Z,61.60
2018-02-19T06:28:46.296Z,61.90
2018-02-19T06:31:13.893Z,61.70
2018-02-19T06:33:41.541Z,61.90
2018-02-19T06:36:09.910Z,61.70
2018-02-19T06:38:38.427Z,61.70
2018-02-19T06:41:06.084Z,61.70
2018-02-19T06:43:33.702Z,61.70
2018-02-19T06:46:01.344Z,61.70
2018-02-19T06:48:28.945Z,61.90
2018-02-19T06:50:57.317Z,61.90
2018-02-19T06:53:25.717Z,61.90
2018-02-19T06:55:53.309Z,61.70
2018-02-19T06:58:20.944Z,61.90
2018-02-19T07:00:48.581Z,61.90
2018-02-19T07:03:16.940Z,62.00
2018-02-19T07:05:44.672Z,61.80
2018-02-19T07:08:12.265Z,61.90
2018-02-19T07:10:39.890Z,62.00
2018-02-19T07:13:07.555Z,62.10
2018-02-19T07:15:35.176Z,62.10
2018-02-19T07:18:02.786Z,62.10
2018-02-19T07:20:30.425Z,62.20
2018-02-19T07:22:58.033Z,62.30
2018-02-19T07:25:25.629Z,62.20
2018-02-19T07:27:53.269Z,62.30
2018-02-19T07:30:21.630Z,62.20
2018-02-19T07:32:50.022Z,62.40
2018-02-19T07:35:18.507Z,62.50
2018-02-19T07:37:46.897Z,62.60
2018-02-19T07:40:14.533Z,62.40
2018-02-19T07:42:42.927Z,62.40
2018-02-19T07:45:11.303Z,62.40
2018-02-19T07:47:39.699Z,62.40
2018-02-19T07:50:08.058Z,62.50
2018-02-19T07:52:36.464Z,62.50
2018-02-19T07:55:04.066Z,62.30
2018-02-19T07:57:31.820Z,62.60
2018-02-19T07:59:59.432Z,62.40
2018-02-19T08:02:27.838Z,62.60
2018-02-19T08:04:55.456Z,62.60
2018-02-19T08:07:23.089Z,62.60
2018-02-19T08:09:50.704Z,62.70
2018-02-19T08:12:19.096Z,62.60
2018-02-19T08:14:46.696Z,62.40
2018-02-19T08:17:14.365Z,62.70
2018-02-19T08:19:41.965Z,62.50
2018-02-19T08:22:10.607Z,62.60
2018-02-19T08:24:38.216Z,62.50
2018-02-19T08:27:05.861Z,62.60
2018-02-19T08:29:34.224Z,62.80
2018-02-19T08:32:01.839Z,62.70
2018-02-19T08:34:29.525Z,62.70
2018-02-19T08:36:57.141Z,62.60
2018-02-19T08:39:25.078Z,62.70
2018-02-19T08:41:52.682Z,62.80
2018-02-19T08:44:20.303Z,63.10
2018-02-19T08:46:48.675Z,62.90
2018-02-19T08:49:16.313Z,62.80
2018-02-19T08:51:43.919Z,63.00
2018-02-19T08:54:12.305Z,63.00
2018-02-19T08:56:39.900Z,62.90
2018-02-19T08:59:07.531Z,62.90
2018-02-19T09:01:35.233Z,63.00
2018-02-19T09:04:02.882Z,63.20
2018-02-19T09:06:30.484Z,62.80
2018-02-19T09:08:58.089Z,63.20
2018-02-19T09:11:25.717Z,64.10
2018-02-19T09:13:54.123Z,63.20
2018-02-19T09:16:21.761Z,63.20
2018-02-19T09:18:50.146Z,63.30
2018-02-19T09:21:18.566Z,63.20
2018-02-19T09:23:46.156Z,63.10
2018-02-19T09:26:14.534Z,63.40
2018-02-19T09:28:42.166Z,63.30
2018-02-19T09:31:09.761Z,63.30
2018-02-19T09:33:37.392Z,63.20
2018-02-19T09:36:04.993Z,63.20
2018-02-19T09:38:33.358Z,63.20
2018-02-19T09:41:01.002Z,63.10
2018-02-19T09:43:28.603Z,63.20
2018-02-19T09:45:57.003Z,63.50
2018-02-19T09:48:24.606Z,63.30
2018-02-19T09:50:52.233Z,63.20
2018-02-19T09:53:19.856Z,63.20
2018-02-19T09:55:47.460Z,63.00
2018-02-19T09:58:15.177Z,63.10
2018-02-19T10:00:43.555Z,63.00
2018-02-19T10:03:11.183Z,62.90
2018-02-19T10:05:38.840Z,63.70
2018-02-19T10:08:06.432Z,63.00
2018-02-19T10:10:34.058Z,62.80
2018-02-19T10:13:01.653Z,62.90
2018-02-19T10:15:29.297Z,63.10
2018-02-19T10:17:56.905Z,62.90
2018-02-19T10:20:25.281Z,62.70
2018-02-19T10:22:53.670Z,62.80
2018-02-19T10:25:21.287Z,62.70
2018-02-19T10:27:49.871Z,62.90
2018-02-19T10:30:17.493Z,62.70
2018-02-19T10:32:45.140Z,62.60
2018-02-19T10:35:12.750Z,62.40
2018-02-19T10:37:40.353Z,62.50
2018-02-19T10:40:08.000Z,62.50
2018-02-19T10:42:35.617Z,62.50
2018-02-19T10:45:03.252Z,62.50
2018-02-19T10:47:30.849Z,62.40
2018-02-19T10:49:58.465Z,62.10
2018-02-19T10:52:26.092Z,62.30
2018-02-19T10:54:53.693Z,62.30
2018-02-19T10:57:21.332Z,62.50
2018-02-19T10:59:49.704Z,62.50
2018-02-19T11:02:18.068Z,62.50
2018-02-19T11:04:45.692Z,62.40
2018-02-19T11:07:13.284Z,62.50
2018-02-19T11:09:40.948Z,62.40
2018-02-19T11:12:08.579Z,62.60
2018-02-19T11:14:36.187Z,62.70
2018-02-19T11:17:04.735Z,62.60
2018-02-19T11:19:32.509Z,62.60
2018-02-19T11:22:00.136Z,62.70
2018-02-19T11:24:27.730Z,62.60
2018-02-19T11:26:55.358Z,62.40
2018-02-19T11:29:22.964Z,62.30
2018-02-19T11:31:50.569Z,62.40
2018-02-19T11:34:18.210Z,62.20
2018-02-19T11:36:46.581Z,62.20
2018-02-19T11:39:15.064Z,62.30
2018-02-19T11:41:43.421Z,62.40
2018-02-19T11:44:11.066Z,62.30
2018-02-19T11:46:38.662Z,62.60
2018-02-19T11:49:07.057Z,62.50
2018-02-19T11:51:34.684Z,62.30
2018-02-19T11:54:02.318Z,62.50
2018-02-19T11:56:29.925Z,62.20
2018-02-19T11:58:58.322Z,62.20
2018-02-19T12:01:25.920Z,62.00
2018-02-19T12:03:53.568Z,62.00
2018-02-19T12:06:21.178Z,61.70
2018-02-19T12:08:49.627Z,62.10
2018-02-19T12:11:17.277Z,62.00
2018-02-19T12:13:44.917Z,60.80
2018-02-19T12:16:12.520Z,61.00
2018-02-19T12:18:40.128Z,61.10
2018-02-19T12:21:07.759Z,61.10
2018-02-19T12:23:35.382Z,60.60
2018-02-19T12:26:03.021Z,59.80
2018-02-19T12:28:30.703Z,60.00
2018-02-19T12:30:58.304Z,60.80
2018-02-19T12:33:25.964Z,60.80
2018-02-19T12:35:53.617Z,59.60
2018-02-19T12:38:21.247Z,60.10
2018-02-19T12:40:48.849Z,59.80
2018-02-19T12:43:16.535Z,60.50
2018-02-19T12:45:44.164Z,60.70
2018-02-19T12:48:11.765Z,60.00
2018-02-19T12:50:39.413Z,59.80
2018-02-19T12:53:07.015Z,59.70
2018-02-19T12:55:34.646Z,59.80
2018-02-19T12:58:02.275Z,59.70
2018-02-19T13:00:29.889Z,59.30
2018-02-19T13:02:57.534Z,59.80
2018-02-19T13:05:25.153Z,59.40
2018-02-19T13:07:52.789Z,59.00
2018-02-19T13:10:20.431Z,59.20
2018-02-19T13:12:48.024Z,59.50
2018-02-19T13:15:15.657Z,59.30
2018-02-19T13:17:43.264Z,59.30
2018-02-19T13:20:10.900Z,59.30
2018-02-19T13:22:38.518Z,59.90
2018-02-19T13:25:06.174Z,59.20
2018-02-19T13:27:33.776Z,59.00
2018-02-19T13:30:01.377Z,59.30
2018-02-19T13:32:29.782Z,59.00
2018-02-19T13:34:57.472Z,58.80
2018-02-19T13:37:25.111Z,58.90
2018-02-19T13:39:52.721Z,59.30
2018-02-19T13:42:20.361Z,59.00
2018-02-19T13:44:47.996Z,59.10
2018-02-19T13:49:48.873Z,58.60
2018-02-19T13:52:16.614Z,58.70
2018-02-19T13:54:44.240Z,58.90
2018-02-19T13:57:12.657Z,59.10
2018-02-19T13:59:40.577Z,59.20
2018-02-19T14:02:08.250Z,59.00
2018-02-19T14:04:35.992Z,59.10
2018-02-19T14:07:03.775Z,59.00
2018-02-19T14:09:31.742Z,58.90
2018-02-19T14:11:59.602Z,58.80
2018-02-19T14:14:27.578Z,58.70
2018-02-19T14:16:55.552Z,58.60
2018-02-19T14:19:23.413Z,58.60
2018-02-19T14:21:51.285Z,58.40
2018-02-19T14:24:19.321Z,58.70
2018-02-19T14:26:47.018Z,58.50
2018-02-19T14:29:14.867Z,58.80
2018-02-19T14:31:43.374Z,58.70
2018-02-19T14:34:11.128Z,58.60
2018-02-19T14:36:38.928Z,58.60
2018-02-19T14:39:07.684Z,58.50
2018-02-19T14:41:35.661Z,58.50
2018-02-19T14:44:03.538Z,58.70
2018-02-19T14:46:31.595Z,58.60
2018-02-19T14:49:00.094Z,58.70
2018-02-19T14:51:27.868Z,58.60
2018-02-19T14:53:55.595Z,58.70
2018-02-19T14:56:23.464Z,58.60
2018-02-19T14:58:52.161Z,58.50
2018-02-19T15:01:20.022Z,58.40
2018-02-19T15:03:47.770Z,58.60
2018-02-19T15:06:15.482Z,58.30
2018-02-19T15:08:44.136Z,58.40
2018-02-19T15:11:11.988Z,58.20
2018-02-19T15:13:39.774Z,58.70
2018-02-19T15:16:07.632Z,58.60
2018-02-19T15:18:35.427Z,58.70
2018-02-19T15:21:03.914Z,58.90
2018-02-19T15:23:32.573Z,58.70
2018-02-19T15:26:00.436Z,58.60
2018-02-19T15:28:28.934Z,58.50
2018-02-19T15:30:56.667Z,58.40
2018-02-19T15:33:24.468Z,59.00
2018-02-19T15:35:52.211Z,59.00
2018-02-19T15:38:20.131Z,59.90
2018-02-19T15:40:47.838Z,59.30
2018-02-19T15:43:15.652Z,59.00
2018-02-19T15:45:44.172Z,58.70
2018-02-19T15:48:12.067Z,58.70
2018-02-19T15:50:40.664Z,58.70
2018-02-19T15:53:09.081Z,58.80
2018-02-19T15:55:36.876Z,58.70
2018-02-19T15:58:04.648Z,59.00
2018-02-19T16:00:32.520Z,58.80
2018-02-19T16:03:00.304Z,58.80
2018-02-19T16:05:28.135Z,59.00
2018-02-19T16:07:55.830Z,58.60
2018-02-19T16:10:23.562Z,58.70
2018-02-19T16:12:51.337Z,58.90
2018-02-19T16:15:19.194Z,58.50
2018-02-19T16:17:46.972Z,58.50
2018-02-19T16:20:14.646Z,58.70
2018-02-19T16:22:43.990Z,58.60
2018-02-19T16:25:11.717Z,58.50
2018-02-19T16:27:39.570Z,58.70
2018-02-19T16:30:07.419Z,58.40
2018-02-19T16:32:35.248Z,58.40
2018-02-19T16:35:02.931Z,58.40
2018-02-19T16:37:30.611Z,58.40
2018-02-19T16:39:58.335Z,58.40
2018-02-19T16:42:26.808Z,58.40
2018-02-19T16:44:55.468Z,58.50
2018-02-19T16:47:23.228Z,58.40
2018-02-19T16:49:51.080Z,58.50
2018-02-19T16:52:18.859Z,57.80
2018-02-19T16:54:46.648Z,58.70
2018-02-19T16:57:15.108Z,58.10
2018-02-19T16:59:42.875Z,58.10
2018-02-19T17:02:10.634Z,58.10
2018-02-19T17:04:38.995Z,58.10
2018-02-19T17:07:06.786Z,58.10
2018-02-19T17:09:34.650Z,58.10
2018-02-19T17:12:03.256Z,58.10
2018-02-19T17:14:31.667Z,58.20
2018-02-19T17:16:59.491Z,58.00
2018-02-19T17:19:27.965Z,58.20
2018-02-19T17:21:55.919Z,58.00
2018-02-19T17:24:23.899Z,58.20
2018-02-19T17:26:51.766Z,58.10
2018-02-19T17:29:21.169Z,58.90
2018-02-19T17:31:48.986Z,58.90
2018-02-19T17:34:16.721Z,59.00
2018-02-19T17:36:45.140Z,58.90
2018-02-19T17:39:12.880Z,58.90
2018-02-19T17:41:41.421Z,59.10
2018-02-19T17:44:09.133Z,59.00
2018-02-19T17:46:36.790Z,59.10
2018-02-19T17:49:04.717Z,59.10
2018-02-19T17:51:32.681Z,59.30
2018-02-19T17:54:01.818Z,59.20
2018-02-19T17:56:30.473Z,59.20
2018-02-19T17:58:58.334Z,59.20
2018-02-19T18:01:26.187Z,59.20
2018-02-19T18:03:54.175Z,59.30
2018-02-19T18:06:22.040Z,59.40
2018-02-19T18:08:50.995Z,59.50
2018-02-19T18:11:19.008Z,59.50
2018-02-19T18:13:47.040Z,59.50
2018-02-19T18:16:15.040Z,59.60
2018-02-19T18:18:42.953Z,59.50
2018-02-19T18:21:10.741Z,59.40
2018-02-19T18:23:38.610Z,59.40
2018-02-19T18:26:06.515Z,59.50
2018-02-19T18:28:35.171Z,59.60
2018-02-19T18:31:03.190Z,59.80
2018-02-19T18:33:31.139Z,59.70
2018-02-19T18:35:59.104Z,59.80
2018-02-19T18:38:26.983Z,59.90
2018-02-19T18:40:54.943Z,59.90
2018-02-19T18:43:22.813Z,60.70
2018-02-19T18:45:50.673Z,59.80
2018-02-19T18:48:18.504Z,59.80
2018-02-19T18:50:47.090Z,59.80
2018-02-19T18:53:15.005Z,59.70
2018-02-19T18:55:43.681Z,59.50
2018-02-19T18:58:11.430Z,59.50
2018-02-19T19:00:39.196Z,59.80
2018-02-19T19:03:07.114Z,59.70
2018-02-19T19:05:35.648Z,59.80
2018-02-19T19:08:15.413Z,59.80
2018-02-19T19:10:58.822Z,60.00
2018-02-19T19:13:26.611Z,59.80
2018-02-19T19:15:55.187Z,59.80
2018-02-19T19:18:22.913Z,59.70
2018-02-19T19:20:50.638Z,59.80
2018-02-19T19:23:18.308Z,59.90
2018-02-19T19:25:50.242Z,59.80
2018-02-19T19:28:18.112Z,59.80
2018-02-19T19:30:46.086Z,59.80
2018-02-19T19:33:13.952Z,60.00
2018-02-19T19:35:41.818Z,59.90
2018-02-19T19:38:09.690Z,59.90
2018-02-19T19:40:38.544Z,59.80
2018-02-19T19:43:06.479Z,59.80
2018-02-19T19:45:35.479Z,59.80
2018-02-19T19:48:04.272Z,59.90
2018-02-19T19:50:32.202Z,59.80
2018-02-19T19:53:00.069Z,59.80
2018-02-19T19:55:28.852Z,59.90
2018-02-19T19:57:56.712Z,59.80
2018-02-19T20:00:35.821Z,59.90
2018-02-19T20:03:05.589Z,59.80
2018-02-19T20:05:34.716Z,59.80
2018-02-19T20:08:02.621Z,59.90
2018-02-19T20:10:30.498Z,59.90
2018-02-19T20:12:58.454Z,59.90
2018-02-19T20:15:26.330Z,59.90
2018-02-19T20:17:54.302Z,59.90
2018-02-19T20:20:22.163Z,59.90
2018-02-19T20:22:50.027Z,60.00
2018-02-19T20:25:17.999Z,60.10
2018-02-19T20:27:45.871Z,59.90
2018-02-19T20:30:13.833Z,60.00
2018-02-19T20:32:41.698Z,59.90
2018-02-19T20:35:09.576Z,59.90
2018-02-19T20:37:37.414Z,60.10
2018-02-19T20:40:05.303Z,60.00
2018-02-19T20:42:33.146Z,59.90
2018-02-19T20:45:00.830Z,59.90
2018-02-19T20:47:28.604Z,60.00
2018-02-19T20:49:56.870Z,60.00
2018-02-19T20:52:24.736Z,60.20
2018-02-19T20:54:52.720Z,60.00
2018-02-19T20:57:20.595Z,60.10
2018-02-19T20:59:48.447Z,60.20
2018-02-19T21:02:16.423Z,60.20
2018-02-19T21:04:44.279Z,60.20
2018-02-19T21:07:12.252Z,60.30
2018-02-19T21:09:40.035Z,60.40
2018-02-19T21:12:08.705Z,61.10
2018-02-19T21:14:36.668Z,60.40
2018-02-19T21:17:04.541Z,60.40
2018-02-19T21:19:32.518Z,60.60
2018-02-19T21:22:00.374Z,60.30
2018-02-19T21:24:28.259Z,60.50
2018-02-19T21:27:02.259Z,60.40
2018-02-19T21:29:30.222Z,60.40
2018-02-19T21:31:58.088Z,60.70
2018-02-19T21:34:25.968Z,60.60
2018-02-19T21:36:53.936Z,60.70
2018-02-19T21:39:21.797Z,60.60
2018-02-19T21:41:50.235Z,60.60
2018-02-19T21:44:18.113Z,60.60
2018-02-19T21:46:46.024Z,60.80
2018-02-19T21:49:13.984Z,60.70
2018-02-19T21:51:41.851Z,60.80
2018-02-19T21:54:11.273Z,60.30
2018-02-19T21:56:39.083Z,60.20
2018-02-19T21:59:06.984Z,60.40
2018-02-19T22:01:34.861Z,61.00
2018-02-19T22:04:02.731Z,60.80
2018-02-19T22:06:30.803Z,60.60
2018-02-19T22:08:58.656Z,60.50
2018-02-19T22:11:26.526Z,60.40
2018-02-19T22:13:54.504Z,60.60
2018-02-19T22:16:22.372Z,60.50
2018-02-19T22:18:50.345Z,60.60
2018-02-19T22:21:18.199Z,60.40
2018-02-19T22:23:46.072Z,60.40
2018-02-19T22:26:13.917Z,60.20
2018-02-19T22:28:41.809Z,60.50
2018-02-19T22:31:09.632Z,60.70
2018-02-19T22:33:37.539Z,60.70
2018-02-19T22:36:05.406Z,60.60
2018-02-19T22:38:33.265Z,60.60
2018-02-19T22:41:01.244Z,60.60
2018-02-19T22:43:29.032Z,60.50
2018-02-19T22:45:57.656Z,60.70
2018-02-19T22:48:26.167Z,60.40
2018-02-19T22:50:53.963Z,60.40
2018-02-19T22:53:22.507Z,60.40
2018-02-19T22:55:50.178Z,60.40
2018-02-19T22:58:18.032Z,60.50
2018-02-19T23:00:45.725Z,60.40
2018-02-19T23:03:13.417Z,60.50
2018-02-19T23:05:41.942Z,60.50
2018-02-19T23:08:09.686Z,60.40
2018-02-19T23:10:37.499Z,60.40
2018-02-19T23:13:05.361Z,60.40
2018-02-19T23:15:33.208Z,60.50
2018-02-19T23:18:01.074Z,60.20
2018-02-19T23:20:28.724Z,60.20
2018-02-19T23:22:56.391Z,60.30
2018-02-19T23:25:24.395Z,60.20
2018-02-19T23:27:52.358Z,60.30
2018-02-19T23:30:20.106Z,60.30
2018-02-19T23:32:48.076Z,60.20
2018-02-19T23:35:15.959Z,60.30
2018-02-19T23:37:43.732Z,60.30
2018-02-19T23:40:12.405Z,60.10
2018-02-19T23:42:40.031Z,60.10
2018-02-19T23:45:07.731Z,60.10
2018-02-19T23:47:35.580Z,60.10
2018-02-19T23:50:03.365Z,60.20
2018-02-19T23:52:31.235Z,60.30
2018-02-19T23:54:59.085Z,60.20
2018-02-19T23:57:27.574Z,60.50
2018-02-19T23:59:55.267Z,60.40
